sensor_id;sensor_type;location;lat;lon;timestamp;temperature;humidity
3816;DHT22;1923;48.154;11.536;2024-03-08T00:00:20;2.20;99.90
3816;DHT22;1923;48.154;11.536;2024-03-08T00:02:49;2.10;99.90
3816;DHT22;1923;48.154;11.536;2024-03-08T00:05:18;2.10;99.90
3816;DHT22;1923;48.154;11.536;2024-03-08T00:07:48;2.00;99.90
3816;DHT22;1923;48.154;11.536;2024-03-08T00:10:16;2.10;99.90
3816;DHT22;1923;48.154;11.536;2024-03-08T00:12:45;2.10;99.90
3816;DHT22;1923;48.154;11.536;2024-03-08T00:15:15;2.00;99.90
3816;DHT22;1923;48.154;11.536;2024-03-08T00:17:46;2.10;99.90
3816;DHT22;1923;48.154;11.536;2024-03-08T00:20:15;2.10;99.90
3816;DHT22;1923;48.154;11.536;2024-03-08T00:22:44;2.20;99.90
3816;DHT22;1923;48.154;11.536;2024-03-08T00:25:14;2.20;99.90
3816;DHT22;1923;48.154;11.536;2024-03-08T00:27:43;2.10;99.90
3816;DHT22;1923;48.154;11.536;2024-03-08T00:30:11;2.10;99.90
3816;DHT22;1923;48.154;11.536;2024-03-08T00:32:41;2.00;99.90
3816;DHT22;1923;48.154;11.536;2024-03-08T00:35:09;1.90;99.90
3816;DHT22;1923;48.154;11.536;2024-03-08T00:37:39;1.90;99.90
3816;DHT22;1923;48.154;11.536;2024-03-08T00:40:09;2.00;99.90
3816;DHT22;1923;48.154;11.536;2024-03-08T00:42:39;2.00;99.90
3816;DHT22;1923;48.154;11.536;2024-03-08T00:45:09;2.00;99.90
3816;DHT22;1923;48.154;11.536;2024-03-08T00:47:38;1.90;99.90
3816;DHT22;1923;48.154;11.536;2024-03-08T00:50:07;2.00;99.90
3816;DHT22;1923;48.154;11.536;2024-03-08T00:52:36;1.90;99.90
3816;DHT22;1923;48.154;11.536;2024-03-08T00:55:04;1.80;99.90
3816;DHT22;1923;48.154;11.536;2024-03-08T00:57:33;1.80;99.90
3816;DHT22;1923;48.154;11.536;2024-03-08T01:00:05;1.80;99.90
3816;DHT22;1923;48.154;11.536;2024-03-08T01:02:34;1.80;99.90
3816;DHT22;1923;48.154;11.536;2024-03-08T01:05:03;1.80;99.90
3816;DHT22;1923;48.154;11.536;2024-03-08T01:07:33;1.70;99.90
3816;DHT22;1923;48.154;11.536;2024-03-08T01:10:02;1.80;99.90
3816;DHT22;1923;48.154;11.536;2024-03-08T01:12:30;1.80;99.90
3816;DHT22;1923;48.154;11.536;2024-03-08T01:14:58;1.90;99.90
3816;DHT22;1923;48.154;11.536;2024-03-08T01:17:28;2.00;99.90
3816;DHT22;1923;48.154;11.536;2024-03-08T01:19:56;1.90;99.90
3816;DHT22;1923;48.154;11.536;2024-03-08T01:22:25;1.90;99.90
3816;DHT22;1923;48.154;11.536;2024-03-08T01:24:55;1.90;99.90
3816;DHT22;1923;48.154;11.536;2024-03-08T01:27:23;1.90;99.90
3816;DHT22;1923;48.154;11.536;2024-03-08T01:29:52;1.90;99.90
3816;DHT22;1923;48.154;11.536;2024-03-08T01:32:20;1.80;99.90
3816;DHT22;1923;48.154;11.536;2024-03-08T01:34:51;1.70;99.90
3816;DHT22;1923;48.154;11.536;2024-03-08T01:37:19;1.80;99.90
3816;DHT22;1923;48.154;11.536;2024-03-08T01:39:47;1.70;99.90
3816;DHT22;1923;48.154;11.536;2024-03-08T01:42:15;1.70;99.90
3816;DHT22;1923;48.154;11.536;2024-03-08T01:44:44;1.60;99.90
3816;DHT22;1923;48.154;11.536;2024-03-08T01:47:12;1.60;99.90
3816;DHT22;1923;48.154;11.536;2024-03-08T01:49:40;1.60;99.90
3816;DHT22;1923;48.154;11.536;2024-03-08T01:52:10;1.50;99.90
3816;DHT22;1923;48.154;11.536;2024-03-08T01:54:39;1.50;99.90
3816;DHT22;1923;48.154;11.536;2024-03-08T01:57:08;1.50;99.90
3816;DHT22;1923;48.154;11.536;2024-03-08T01:59:36;1.50;99.90
3816;DHT22;1923;48.154;11.536;2024-03-08T02:02:05;1.60;99.90
3816;DHT22;1923;48.154;11.536;2024-03-08T02:04:35;1.50;99.90
3816;DHT22;1923;48.154;11.536;2024-03-08T02:07:05;1.50;99.90
3816;DHT22;1923;48.154;11.536;2024-03-08T02:09:38;1.50;99.90
3816;DHT22;1923;48.154;11.536;2024-03-08T02:12:10;1.50;99.90
3816;DHT22;1923;48.154;11.536;2024-03-08T02:14:38;1.50;99.90
3816;DHT22;1923;48.154;11.536;2024-03-08T02:17:07;1.50;99.90
3816;DHT22;1923;48.154;11.536;2024-03-08T02:19:35;1.60;99.90
3816;DHT22;1923;48.154;11.536;2024-03-08T02:22:05;1.60;99.90
3816;DHT22;1923;48.154;11.536;2024-03-08T02:24:34;1.60;99.90
3816;DHT22;1923;48.154;11.536;2024-03-08T02:27:02;1.50;99.90
3816;DHT22;1923;48.154;11.536;2024-03-08T02:29:31;1.50;99.90
3816;DHT22;1923;48.154;11.536;2024-03-08T02:32:01;1.40;99.90
3816;DHT22;1923;48.154;11.536;2024-03-08T02:34:30;1.40;99.90
3816;DHT22;1923;48.154;11.536;2024-03-08T02:36:59;1.40;99.90
3816;DHT22;1923;48.154;11.536;2024-03-08T02:39:28;1.50;99.90
3816;DHT22;1923;48.154;11.536;2024-03-08T02:41:56;1.40;99.90
3816;DHT22;1923;48.154;11.536;2024-03-08T02:44:24;1.40;99.90
3816;DHT22;1923;48.154;11.536;2024-03-08T02:46:53;1.50;99.90
3816;DHT22;1923;48.154;11.536;2024-03-08T02:49:22;1.30;99.90
3816;DHT22;1923;48.154;11.536;2024-03-08T02:51:50;1.30;99.90
3816;DHT22;1923;48.154;11.536;2024-03-08T02:54:18;1.40;99.90
3816;DHT22;1923;48.154;11.536;2024-03-08T02:56:49;1.40;99.90
3816;DHT22;1923;48.154;11.536;2024-03-08T02:59:17;1.40;99.90
3816;DHT22;1923;48.154;11.536;2024-03-08T03:01:45;1.50;99.90
3816;DHT22;1923;48.154;11.536;2024-03-08T03:04:14;1.40;99.90
3816;DHT22;1923;48.154;11.536;2024-03-08T03:06:42;1.30;99.90
3816;DHT22;1923;48.154;11.536;2024-03-08T03:09:10;1.40;99.90
3816;DHT22;1923;48.154;11.536;2024-03-08T03:11:38;1.40;99.90
3816;DHT22;1923;48.154;11.536;2024-03-08T03:14:08;1.40;99.90
3816;DHT22;1923;48.154;11.536;2024-03-08T03:16:36;1.50;99.90
3816;DHT22;1923;48.154;11.536;2024-03-08T03:19:05;1.50;99.90
3816;DHT22;1923;48.154;11.536;2024-03-08T03:21:34;1.40;99.90
3816;DHT22;1923;48.154;11.536;2024-03-08T03:24:03;1.30;99.90
3816;DHT22;1923;48.154;11.536;2024-03-08T03:26:37;1.40;99.90
3816;DHT22;1923;48.154;11.536;2024-03-08T03:29:09;1.40;99.90
3816;DHT22;1923;48.154;11.536;2024-03-08T03:31:38;1.40;99.90
3816;DHT22;1923;48.154;11.536;2024-03-08T03:34:07;1.50;99.90
3816;DHT22;1923;48.154;11.536;2024-03-08T03:36:35;1.40;99.90
3816;DHT22;1923;48.154;11.536;2024-03-08T03:39:05;1.50;99.90
3816;DHT22;1923;48.154;11.536;2024-03-08T03:41:37;1.30;99.90
3816;DHT22;1923;48.154;11.536;2024-03-08T03:44:06;1.30;99.90
3816;DHT22;1923;48.154;11.536;2024-03-08T03:46:35;1.20;99.90
3816;DHT22;1923;48.154;11.536;2024-03-08T03:49:03;1.20;99.90
3816;DHT22;1923;48.154;11.536;2024-03-08T03:51:55;1.20;99.90
3816;DHT22;1923;48.154;11.536;2024-03-08T03:54:24;1.30;99.90
3816;DHT22;1923;48.154;11.536;2024-03-08T03:56:52;1.20;99.90
3816;DHT22;1923;48.154;11.536;2024-03-08T03:59:20;1.10;99.90
3816;DHT22;1923;48.154;11.536;2024-03-08T04:01:49;1.10;99.90
3816;DHT22;1923;48.154;11.536;2024-03-08T04:04:18;1.20;99.90
3816;DHT22;1923;48.154;11.536;2024-03-08T04:06:46;1.10;99.90
3816;DHT22;1923;48.154;11.536;2024-03-08T04:09:14;1.10;99.90
3816;DHT22;1923;48.154;11.536;2024-03-08T04:11:42;1.00;99.90
3816;DHT22;1923;48.154;11.536;2024-03-08T04:14:10;1.10;99.90
3816;DHT22;1923;48.154;11.536;2024-03-08T04:16:38;1.10;99.90
3816;DHT22;1923;48.154;11.536;2024-03-08T04:19:08;1.10;99.90
3816;DHT22;1923;48.154;11.536;2024-03-08T04:21:36;1.20;99.90
3816;DHT22;1923;48.154;11.536;2024-03-08T04:24:05;1.20;99.90
3816;DHT22;1923;48.154;11.536;2024-03-08T04:26:33;1.20;99.90
3816;DHT22;1923;48.154;11.536;2024-03-08T04:29:01;1.10;99.90
3816;DHT22;1923;48.154;11.536;2024-03-08T04:31:29;1.10;99.90
3816;DHT22;1923;48.154;11.536;2024-03-08T04:33:58;1.10;99.90
3816;DHT22;1923;48.154;11.536;2024-03-08T04:36:28;0.90;99.90
3816;DHT22;1923;48.154;11.536;2024-03-08T04:38:56;0.90;99.90
3816;DHT22;1923;48.154;11.536;2024-03-08T04:41:24;0.90;99.90
3816;DHT22;1923;48.154;11.536;2024-03-08T04:43:52;1.00;99.90
3816;DHT22;1923;48.154;11.536;2024-03-08T04:46:20;1.00;99.90
3816;DHT22;1923;48.154;11.536;2024-03-08T04:48:48;0.90;99.90
3816;DHT22;1923;48.154;11.536;2024-03-08T04:51:16;0.90;99.90
3816;DHT22;1923;48.154;11.536;2024-03-08T04:53:47;0.90;99.90
3816;DHT22;1923;48.154;11.536;2024-03-08T04:56:16;0.90;99.90
3816;DHT22;1923;48.154;11.536;2024-03-08T04:58:46;0.90;99.90
3816;DHT22;1923;48.154;11.536;2024-03-08T05:01:14;1.00;99.90
3816;DHT22;1923;48.154;11.536;2024-03-08T05:03:42;0.90;99.90
3816;DHT22;1923;48.154;11.536;2024-03-08T05:06:10;1.00;99.90
3816;DHT22;1923;48.154;11.536;2024-03-08T05:08:38;1.10;99.90
3816;DHT22;1923;48.154;11.536;2024-03-08T05:11:08;1.10;99.90
3816;DHT22;1923;48.154;11.536;2024-03-08T05:13:36;1.20;99.90
3816;DHT22;1923;48.154;11.536;2024-03-08T05:16:04;1.20;99.90
3816;DHT22;1923;48.154;11.536;2024-03-08T05:18:34;1.10;99.90
3816;DHT22;1923;48.154;11.536;2024-03-08T05:21:03;1.10;99.90
3816;DHT22;1923;48.154;11.536;2024-03-08T05:23:31;1.10;99.90
3816;DHT22;1923;48.154;11.536;2024-03-08T05:25:59;1.10;99.90
3816;DHT22;1923;48.154;11.536;2024-03-08T05:28:29;1.20;99.90
3816;DHT22;1923;48.154;11.536;2024-03-08T05:30:57;1.00;99.90
3816;DHT22;1923;48.154;11.536;2024-03-08T05:33:25;1.10;99.90
3816;DHT22;1923;48.154;11.536;2024-03-08T05:35:53;1.20;99.90
3816;DHT22;1923;48.154;11.536;2024-03-08T05:38:21;1.20;99.90
3816;DHT22;1923;48.154;11.536;2024-03-08T05:40:49;1.10;99.90
3816;DHT22;1923;48.154;11.536;2024-03-08T05:43:18;1.20;99.90
3816;DHT22;1923;48.154;11.536;2024-03-08T05:45:47;1.10;99.90
3816;DHT22;1923;48.154;11.536;2024-03-08T05:48:15;1.10;99.90
3816;DHT22;1923;48.154;11.536;2024-03-08T05:50:45;1.00;99.90
3816;DHT22;1923;48.154;11.536;2024-03-08T05:53:13;1.10;99.90
3816;DHT22;1923;48.154;11.536;2024-03-08T05:55:42;1.10;99.90
3816;DHT22;1923;48.154;11.536;2024-03-08T05:58:10;1.20;99.90
3816;DHT22;1923;48.154;11.536;2024-03-08T06:00:38;1.20;99.90
3816;DHT22;1923;48.154;11.536;2024-03-08T06:03:08;1.20;99.90
3816;DHT22;1923;48.154;11.536;2024-03-08T06:05:36;1.20;99.90
3816;DHT22;1923;48.154;11.536;2024-03-08T06:08:09;1.20;99.90
3816;DHT22;1923;48.154;11.536;2024-03-08T06:10:38;1.10;99.90
3816;DHT22;1923;48.154;11.536;2024-03-08T06:13:06;1.20;99.90
3816;DHT22;1923;48.154;11.536;2024-03-08T06:15:34;1.30;99.90
3816;DHT22;1923;48.154;11.536;2024-03-08T06:18:03;1.20;99.90
3816;DHT22;1923;48.154;11.536;2024-03-08T06:20:34;1.20;99.90
3816;DHT22;1923;48.154;11.536;2024-03-08T06:23:02;1.00;99.90
3816;DHT22;1923;48.154;11.536;2024-03-08T06:25:30;1.10;99.90
3816;DHT22;1923;48.154;11.536;2024-03-08T06:27:58;1.30;99.90
3816;DHT22;1923;48.154;11.536;2024-03-08T06:30:29;1.30;99.90
3816;DHT22;1923;48.154;11.536;2024-03-08T06:32:58;1.40;99.90
3816;DHT22;1923;48.154;11.536;2024-03-08T06:35:26;1.20;99.90
3816;DHT22;1923;48.154;11.536;2024-03-08T06:37:55;1.40;99.90
3816;DHT22;1923;48.154;11.536;2024-03-08T06:40:23;1.50;99.90
3816;DHT22;1923;48.154;11.536;2024-03-08T06:42:51;1.60;99.90
3816;DHT22;1923;48.154;11.536;2024-03-08T06:45:21;1.70;99.90
3816;DHT22;1923;48.154;11.536;2024-03-08T06:47:50;1.60;99.90
3816;DHT22;1923;48.154;11.536;2024-03-08T06:50:23;1.60;99.90
3816;DHT22;1923;48.154;11.536;2024-03-08T06:52:51;1.60;99.90
3816;DHT22;1923;48.154;11.536;2024-03-08T06:55:21;1.70;99.90
3816;DHT22;1923;48.154;11.536;2024-03-08T06:57:50;1.80;99.90
3816;DHT22;1923;48.154;11.536;2024-03-08T07:00:18;1.90;99.90
3816;DHT22;1923;48.154;11.536;2024-03-08T07:02:48;1.90;99.90
3816;DHT22;1923;48.154;11.536;2024-03-08T07:05:16;2.10;99.90
3816;DHT22;1923;48.154;11.536;2024-03-08T07:07:45;2.20;99.90
3816;DHT22;1923;48.154;11.536;2024-03-08T07:10:15;2.20;99.90
3816;DHT22;1923;48.154;11.536;2024-03-08T07:12:45;2.30;99.90
3816;DHT22;1923;48.154;11.536;2024-03-08T07:15:13;2.30;99.90
3816;DHT22;1923;48.154;11.536;2024-03-08T07:17:42;2.30;99.90
3816;DHT22;1923;48.154;11.536;2024-03-08T07:20:12;2.30;99.90
3816;DHT22;1923;48.154;11.536;2024-03-08T07:22:41;2.40;99.90
3816;DHT22;1923;48.154;11.536;2024-03-08T07:25:13;2.60;99.90
3816;DHT22;1923;48.154;11.536;2024-03-08T07:27:53;2.60;99.90
3816;DHT22;1923;48.154;11.536;2024-03-08T07:30:22;2.60;99.90
3816;DHT22;1923;48.154;11.536;2024-03-08T07:33:10;2.60;99.90
3816;DHT22;1923;48.154;11.536;2024-03-08T07:35:40;2.60;99.90
3816;DHT22;1923;48.154;11.536;2024-03-08T07:38:09;2.80;99.90
3816;DHT22;1923;48.154;11.536;2024-03-08T07:40:39;2.80;99.90
3816;DHT22;1923;48.154;11.536;2024-03-08T07:43:13;2.90;99.90
3816;DHT22;1923;48.154;11.536;2024-03-08T07:45:41;3.20;99.90
3816;DHT22;1923;48.154;11.536;2024-03-08T07:48:10;3.30;99.90
3816;DHT22;1923;48.154;11.536;2024-03-08T07:50:40;3.50;99.90
3816;DHT22;1923;48.154;11.536;2024-03-08T07:53:08;3.50;99.90
3816;DHT22;1923;48.154;11.536;2024-03-08T07:55:36;3.80;99.90
3816;DHT22;1923;48.154;11.536;2024-03-08T07:58:06;4.00;99.90
3816;DHT22;1923;48.154;11.536;2024-03-08T08:00:39;4.10;99.90
3816;DHT22;1923;48.154;11.536;2024-03-08T08:03:13;4.30;99.90
3816;DHT22;1923;48.154;11.536;2024-03-08T08:05:42;4.30;99.90
3816;DHT22;1923;48.154;11.536;2024-03-08T08:08:14;4.60;99.90
3816;DHT22;1923;48.154;11.536;2024-03-08T08:10:42;4.30;99.90
3816;DHT22;1923;48.154;11.536;2024-03-08T08:13:10;4.70;99.90
3816;DHT22;1923;48.154;11.536;2024-03-08T08:15:41;5.40;99.90
3816;DHT22;1923;48.154;11.536;2024-03-08T08:18:09;6.00;99.90
3816;DHT22;1923;48.154;11.536;2024-03-08T08:20:37;6.20;99.90
3816;DHT22;1923;48.154;11.536;2024-03-08T08:23:05;7.40;99.90
3816;DHT22;1923;48.154;11.536;2024-03-08T08:25:33;8.30;99.90
3816;DHT22;1923;48.154;11.536;2024-03-08T08:28:02;8.90;99.90
3816;DHT22;1923;48.154;11.536;2024-03-08T08:30:31;9.60;99.90
3816;DHT22;1923;48.154;11.536;2024-03-08T08:33:02;10.10;99.90
3816;DHT22;1923;48.154;11.536;2024-03-08T08:35:32;9.70;99.90
3816;DHT22;1923;48.154;11.536;2024-03-08T08:38:00;9.70;99.90
3816;DHT22;1923;48.154;11.536;2024-03-08T08:40:30;9.40;99.90
3816;DHT22;1923;48.154;11.536;2024-03-08T08:42:59;9.10;99.90
3816;DHT22;1923;48.154;11.536;2024-03-08T08:45:27;8.60;99.90
3816;DHT22;1923;48.154;11.536;2024-03-08T08:47:55;8.20;99.90
3816;DHT22;1923;48.154;11.536;2024-03-08T08:50:25;7.80;99.90
3816;DHT22;1923;48.154;11.536;2024-03-08T08:52:53;8.00;99.90
3816;DHT22;1923;48.154;11.536;2024-03-08T08:55:21;8.00;99.90
3816;DHT22;1923;48.154;11.536;2024-03-08T08:57:53;8.40;99.90
3816;DHT22;1923;48.154;11.536;2024-03-08T09:00:23;8.70;99.90
3816;DHT22;1923;48.154;11.536;2024-03-08T09:02:55;9.30;99.90
3816;DHT22;1923;48.154;11.536;2024-03-08T09:05:26;9.60;99.90
3816;DHT22;1923;48.154;11.536;2024-03-08T09:07:55;10.20;99.90
3816;DHT22;1923;48.154;11.536;2024-03-08T09:10:23;11.00;99.90
3816;DHT22;1923;48.154;11.536;2024-03-08T09:12:57;11.10;99.90
3816;DHT22;1923;48.154;11.536;2024-03-08T09:15:27;11.60;99.90
3816;DHT22;1923;48.154;11.536;2024-03-08T09:17:56;11.30;99.90
3816;DHT22;1923;48.154;11.536;2024-03-08T09:20:25;11.80;99.90
3816;DHT22;1923;48.154;11.536;2024-03-08T09:22:53;11.80;99.90
3816;DHT22;1923;48.154;11.536;2024-03-08T09:25:22;11.50;99.90
3816;DHT22;1923;48.154;11.536;2024-03-08T09:27:50;11.60;99.90
3816;DHT22;1923;48.154;11.536;2024-03-08T09:30:18;11.40;99.90
3816;DHT22;1923;48.154;11.536;2024-03-08T09:32:48;11.90;99.90
3816;DHT22;1923;48.154;11.536;2024-03-08T09:35:18;12.20;99.90
3816;DHT22;1923;48.154;11.536;2024-03-08T09:37:48;11.60;99.90
3816;DHT22;1923;48.154;11.536;2024-03-08T09:40:18;11.10;99.90
3816;DHT22;1923;48.154;11.536;2024-03-08T09:42:48;11.60;99.90
3816;DHT22;1923;48.154;11.536;2024-03-08T09:45:17;11.50;99.90
3816;DHT22;1923;48.154;11.536;2024-03-08T09:47:45;11.50;99.90
3816;DHT22;1923;48.154;11.536;2024-03-08T09:50:13;11.80;99.90
3816;DHT22;1923;48.154;11.536;2024-03-08T09:52:42;11.60;99.90
3816;DHT22;1923;48.154;11.536;2024-03-08T09:55:12;12.00;99.90
3816;DHT22;1923;48.154;11.536;2024-03-08T09:57:40;12.10;99.80
3816;DHT22;1923;48.154;11.536;2024-03-08T10:00:30;12.20;99.90
3816;DHT22;1923;48.154;11.536;2024-03-08T10:03:01;12.30;99.00
3816;DHT22;1923;48.154;11.536;2024-03-08T10:05:30;12.70;99.60
3816;DHT22;1923;48.154;11.536;2024-03-08T10:07:59;13.30;98.40
3816;DHT22;1923;48.154;11.536;2024-03-08T10:10:28;13.10;98.90
3816;DHT22;1923;48.154;11.536;2024-03-08T10:12:57;14.10;97.70
3816;DHT22;1923;48.154;11.536;2024-03-08T10:15:27;13.80;96.20
3816;DHT22;1923;48.154;11.536;2024-03-08T10:17:56;13.00;96.80
3816;DHT22;1923;48.154;11.536;2024-03-08T10:20:24;13.40;97.90
3816;DHT22;1923;48.154;11.536;2024-03-08T10:22:54;13.30;98.20
3816;DHT22;1923;48.154;11.536;2024-03-08T10:25:37;14.00;96.80
3816;DHT22;1923;48.154;11.536;2024-03-08T10:28:06;13.40;96.50
3816;DHT22;1923;48.154;11.536;2024-03-08T10:30:34;13.80;95.70
3816;DHT22;1923;48.154;11.536;2024-03-08T10:33:03;14.30;95.60
3816;DHT22;1923;48.154;11.536;2024-03-08T10:35:32;14.20;95.60
3816;DHT22;1923;48.154;11.536;2024-03-08T10:38:01;14.30;94.80
3816;DHT22;1923;48.154;11.536;2024-03-08T10:40:36;14.40;95.10
3816;DHT22;1923;48.154;11.536;2024-03-08T10:43:15;13.60;95.30
3816;DHT22;1923;48.154;11.536;2024-03-08T10:45:47;13.70;95.40
3816;DHT22;1923;48.154;11.536;2024-03-08T10:48:27;13.50;95.20
3816;DHT22;1923;48.154;11.536;2024-03-08T10:51:04;13.70;95.50
3816;DHT22;1923;48.154;11.536;2024-03-08T10:53:34;14.00;95.20
3816;DHT22;1923;48.154;11.536;2024-03-08T10:56:05;14.40;95.00
3816;DHT22;1923;48.154;11.536;2024-03-08T10:58:35;14.90;94.50
3816;DHT22;1923;48.154;11.536;2024-03-08T11:01:05;15.30;93.80
3816;DHT22;1923;48.154;11.536;2024-03-08T11:03:47;16.00;93.10
3816;DHT22;1923;48.154;11.536;2024-03-08T11:06:23;16.10;92.80
3816;DHT22;1923;48.154;11.536;2024-03-08T11:08:57;15.90;92.00
3816;DHT22;1923;48.154;11.536;2024-03-08T11:11:28;16.00;92.40
3816;DHT22;1923;48.154;11.536;2024-03-08T11:14:01;16.60;91.50
3816;DHT22;1923;48.154;11.536;2024-03-08T11:16:39;17.00;91.30
3816;DHT22;1923;48.154;11.536;2024-03-08T11:19:24;16.20;90.80
3816;DHT22;1923;48.154;11.536;2024-03-08T11:22:00;16.20;91.30
3816;DHT22;1923;48.154;11.536;2024-03-08T11:24:36;15.70;91.40
3816;DHT22;1923;48.154;11.536;2024-03-08T11:27:09;15.80;91.30
3816;DHT22;1923;48.154;11.536;2024-03-08T11:29:40;16.20;91.00
3816;DHT22;1923;48.154;11.536;2024-03-08T11:32:10;15.50;91.60
3816;DHT22;1923;48.154;11.536;2024-03-08T11:34:40;14.10;92.70
3816;DHT22;1923;48.154;11.536;2024-03-08T11:37:14;12.70;94.20
3816;DHT22;1923;48.154;11.536;2024-03-08T11:39:46;11.60;96.00
3816;DHT22;1923;48.154;11.536;2024-03-08T11:42:18;10.40;97.90
3816;DHT22;1923;48.154;11.536;2024-03-08T11:44:46;10.30;99.30
3816;DHT22;1923;48.154;11.536;2024-03-08T11:47:15;10.00;99.90
3816;DHT22;1923;48.154;11.536;2024-03-08T11:49:44;9.60;99.90
3816;DHT22;1923;48.154;11.536;2024-03-08T11:52:16;9.40;99.90
3816;DHT22;1923;48.154;11.536;2024-03-08T11:54:51;9.30;99.90
3816;DHT22;1923;48.154;11.536;2024-03-08T11:57:21;9.40;99.90
3816;DHT22;1923;48.154;11.536;2024-03-08T11:59:52;9.20;99.90
3816;DHT22;1923;48.154;11.536;2024-03-08T12:02:23;9.00;99.90
3816;DHT22;1923;48.154;11.536;2024-03-08T12:04:56;9.00;99.90
3816;DHT22;1923;48.154;11.536;2024-03-08T12:07:26;9.00;99.90
3816;DHT22;1923;48.154;11.536;2024-03-08T12:10:17;9.00;99.90
3816;DHT22;1923;48.154;11.536;2024-03-08T12:12:47;9.00;99.90
3816;DHT22;1923;48.154;11.536;2024-03-08T12:15:17;9.00;99.90
3816;DHT22;1923;48.154;11.536;2024-03-08T12:17:48;9.10;99.90
3816;DHT22;1923;48.154;11.536;2024-03-08T12:20:19;9.10;99.90
3816;DHT22;1923;48.154;11.536;2024-03-08T12:22:49;9.00;99.90
3816;DHT22;1923;48.154;11.536;2024-03-08T12:25:19;9.00;99.90
3816;DHT22;1923;48.154;11.536;2024-03-08T12:27:49;9.00;99.90
3816;DHT22;1923;48.154;11.536;2024-03-08T12:30:21;8.90;99.90
3816;DHT22;1923;48.154;11.536;2024-03-08T12:32:55;8.90;99.90
3816;DHT22;1923;48.154;11.536;2024-03-08T12:35:26;9.00;99.90
3816;DHT22;1923;48.154;11.536;2024-03-08T12:37:55;9.00;99.90
3816;DHT22;1923;48.154;11.536;2024-03-08T12:40:28;8.90;99.90
3816;DHT22;1923;48.154;11.536;2024-03-08T12:42:58;8.90;99.90
3816;DHT22;1923;48.154;11.536;2024-03-08T12:45:26;8.80;99.90
3816;DHT22;1923;48.154;11.536;2024-03-08T12:47:55;9.00;99.90
3816;DHT22;1923;48.154;11.536;2024-03-08T12:50:27;8.90;99.90
3816;DHT22;1923;48.154;11.536;2024-03-08T12:52:56;8.90;99.90
3816;DHT22;1923;48.154;11.536;2024-03-08T12:55:25;9.00;99.90
3816;DHT22;1923;48.154;11.536;2024-03-08T12:57:54;9.10;99.90
3816;DHT22;1923;48.154;11.536;2024-03-08T13:00:23;9.20;99.90
3816;DHT22;1923;48.154;11.536;2024-03-08T13:02:52;9.10;99.90
3816;DHT22;1923;48.154;11.536;2024-03-08T13:05:21;9.20;99.90
3816;DHT22;1923;48.154;11.536;2024-03-08T13:07:50;9.20;99.90
3816;DHT22;1923;48.154;11.536;2024-03-08T13:10:20;9.20;99.90
3816;DHT22;1923;48.154;11.536;2024-03-08T13:12:49;9.20;99.90
3816;DHT22;1923;48.154;11.536;2024-03-08T13:15:20;9.20;99.90
3816;DHT22;1923;48.154;11.536;2024-03-08T13:17:50;9.10;99.90
3816;DHT22;1923;48.154;11.536;2024-03-08T13:20:18;9.20;99.90
3816;DHT22;1923;48.154;11.536;2024-03-08T13:22:56;9.10;99.90
3816;DHT22;1923;48.154;11.536;2024-03-08T13:25:27;9.00;99.90
3816;DHT22;1923;48.154;11.536;2024-03-08T13:27:55;9.10;99.90
3816;DHT22;1923;48.154;11.536;2024-03-08T13:30:25;9.10;99.90
3816;DHT22;1923;48.154;11.536;2024-03-08T13:32:55;9.20;99.90
3816;DHT22;1923;48.154;11.536;2024-03-08T13:35:24;9.20;99.90
3816;DHT22;1923;48.154;11.536;2024-03-08T13:37:54;9.20;99.90
3816;DHT22;1923;48.154;11.536;2024-03-08T13:40:22;9.20;99.90
3816;DHT22;1923;48.154;11.536;2024-03-08T13:42:50;9.30;99.90
3816;DHT22;1923;48.154;11.536;2024-03-08T13:45:19;9.20;99.90
3816;DHT22;1923;48.154;11.536;2024-03-08T13:47:51;9.30;99.90
3816;DHT22;1923;48.154;11.536;2024-03-08T13:50:20;9.30;99.90
3816;DHT22;1923;48.154;11.536;2024-03-08T13:52:49;9.10;99.90
3816;DHT22;1923;48.154;11.536;2024-03-08T13:55:20;9.10;99.90
3816;DHT22;1923;48.154;11.536;2024-03-08T13:57:49;9.20;99.90
3816;DHT22;1923;48.154;11.536;2024-03-08T14:00:18;9.20;99.90
3816;DHT22;1923;48.154;11.536;2024-03-08T14:02:49;9.20;99.90
3816;DHT22;1923;48.154;11.536;2024-03-08T14:05:17;9.30;99.90
3816;DHT22;1923;48.154;11.536;2024-03-08T14:07:48;9.40;99.90
3816;DHT22;1923;48.154;11.536;2024-03-08T14:10:17;9.40;99.90
3816;DHT22;1923;48.154;11.536;2024-03-08T14:12:47;9.40;99.90
3816;DHT22;1923;48.154;11.536;2024-03-08T14:15:18;9.40;99.90
3816;DHT22;1923;48.154;11.536;2024-03-08T14:17:52;9.40;99.90
3816;DHT22;1923;48.154;11.536;2024-03-08T14:20:21;9.50;99.90
3816;DHT22;1923;48.154;11.536;2024-03-08T14:22:53;9.40;99.90
3816;DHT22;1923;48.154;11.536;2024-03-08T14:25:23;9.40;99.90
3816;DHT22;1923;48.154;11.536;2024-03-08T14:27:53;9.30;99.90
3816;DHT22;1923;48.154;11.536;2024-03-08T14:30:25;9.30;99.90
3816;DHT22;1923;48.154;11.536;2024-03-08T14:33:05;9.50;99.90
3816;DHT22;1923;48.154;11.536;2024-03-08T14:35:36;9.50;99.90
3816;DHT22;1923;48.154;11.536;2024-03-08T14:38:06;9.40;99.90
3816;DHT22;1923;48.154;11.536;2024-03-08T14:40:35;9.40;99.90
3816;DHT22;1923;48.154;11.536;2024-03-08T14:43:04;9.40;99.90
3816;DHT22;1923;48.154;11.536;2024-03-08T14:45:33;9.30;99.90
3816;DHT22;1923;48.154;11.536;2024-03-08T14:48:01;9.30;99.90
3816;DHT22;1923;48.154;11.536;2024-03-08T14:50:31;9.10;99.90
3816;DHT22;1923;48.154;11.536;2024-03-08T14:53:00;9.20;99.90
3816;DHT22;1923;48.154;11.536;2024-03-08T14:55:35;9.10;99.90
3816;DHT22;1923;48.154;11.536;2024-03-08T14:58:04;9.20;99.90
3816;DHT22;1923;48.154;11.536;2024-03-08T15:00:32;9.20;99.90
3816;DHT22;1923;48.154;11.536;2024-03-08T15:03:02;9.20;99.90
3816;DHT22;1923;48.154;11.536;2024-03-08T15:05:32;9.10;99.90
3816;DHT22;1923;48.154;11.536;2024-03-08T15:08:03;9.00;99.90
3816;DHT22;1923;48.154;11.536;2024-03-08T15:10:38;9.10;99.90
3816;DHT22;1923;48.154;11.536;2024-03-08T15:13:08;9.10;99.90
3816;DHT22;1923;48.154;11.536;2024-03-08T15:15:43;9.10;99.90
3816;DHT22;1923;48.154;11.536;2024-03-08T15:18:12;9.20;99.90
3816;DHT22;1923;48.154;11.536;2024-03-08T15:20:41;9.20;99.90
3816;DHT22;1923;48.154;11.536;2024-03-08T15:23:09;9.20;99.90
3816;DHT22;1923;48.154;11.536;2024-03-08T15:25:38;9.10;99.90
3816;DHT22;1923;48.154;11.536;2024-03-08T15:28:09;9.20;99.90
3816;DHT22;1923;48.154;11.536;2024-03-08T15:30:41;9.10;99.90
3816;DHT22;1923;48.154;11.536;2024-03-08T15:33:13;9.10;99.90
3816;DHT22;1923;48.154;11.536;2024-03-08T15:35:43;9.20;99.90
3816;DHT22;1923;48.154;11.536;2024-03-08T15:38:15;9.10;99.90
3816;DHT22;1923;48.154;11.536;2024-03-08T15:40:46;9.10;99.90
3816;DHT22;1923;48.154;11.536;2024-03-08T15:43:17;9.10;99.90
3816;DHT22;1923;48.154;11.536;2024-03-08T15:45:46;9.00;99.90
3816;DHT22;1923;48.154;11.536;2024-03-08T15:48:14;9.00;99.90
3816;DHT22;1923;48.154;11.536;2024-03-08T15:50:43;9.00;99.90
3816;DHT22;1923;48.154;11.536;2024-03-08T15:53:11;8.90;99.90
3816;DHT22;1923;48.154;11.536;2024-03-08T15:55:39;9.00;99.90
3816;DHT22;1923;48.154;11.536;2024-03-08T15:58:09;8.90;99.90
3816;DHT22;1923;48.154;11.536;2024-03-08T16:00:40;8.80;99.90
3816;DHT22;1923;48.154;11.536;2024-03-08T16:03:14;8.80;99.90
3816;DHT22;1923;48.154;11.536;2024-03-08T16:05:43;8.80;99.90
3816;DHT22;1923;48.154;11.536;2024-03-08T16:08:12;8.80;99.90
3816;DHT22;1923;48.154;11.536;2024-03-08T16:10:44;8.80;99.90
3816;DHT22;1923;48.154;11.536;2024-03-08T16:13:18;8.80;99.90
3816;DHT22;1923;48.154;11.536;2024-03-08T16:15:47;8.80;99.90